sensor_id;sensor_type;location;lat;lon;timestamp;pressure;altitude;pressure_sealevel;temperature;humidity
47763;BME280;33526;42.690;23.322;2023-05-09T00:02:07;95370.16;;;13.23;80.28
47763;BME280;33526;42.690;23.322;2023-05-09T00:04:32;95342.53;;;13.07;79.68
47763;BME280;33526;42.690;23.322;2023-05-09T00:06:59;95370.16;;;13.23;79.17
47763;BME280;33526;42.690;23.322;2023-05-09T00:09:25;95372.03;;;13.26;78.98
47763;BME280;33526;42.690;23.322;2023-05-09T00:11:50;95358.56;;;13.30;79.05
47763;BME280;33526;42.690;23.322;2023-05-09T00:14:15;95346.75;;;13.26;78.89
47763;BME280;33526;42.690;23.322;2023-05-09T00:16:45;95368.22;;;13.38;78.40
47763;BME280;33526;42.690;23.322;2023-05-09T00:19:11;95375.38;;;13.39;78.40
47763;BME280;33526;42.690;23.322;2023-05-09T00:21:37;95355.75;;;13.30;78.47
47763;BME280;33526;42.690;23.322;2023-05-09T00:24:03;95360.69;;;13.20;78.99
47763;BME280;33526;42.690;23.322;2023-05-09T00:26:28;95295.97;;;12.76;79.74
47763;BME280;33526;42.690;23.322;2023-05-09T00:28:54;95357.38;;;13.07;80.60
47763;BME280;33526;42.690;23.322;2023-05-09T00:31:19;95360.75;;;13.11;80.73
47763;BME280;33526;42.690;23.322;2023-05-09T00:33:45;95348.16;;;13.07;81.20
47763;BME280;33526;42.690;23.322;2023-05-09T00:36:10;95355.38;;;12.98;81.68
47763;BME280;33526;42.690;23.322;2023-05-09T00:38:36;95344.53;;;12.91;82.03
47763;BME280;33526;42.690;23.322;2023-05-09T00:41:01;95351.09;;;12.88;82.08
47763;BME280;33526;42.690;23.322;2023-05-09T00:43:28;95325.53;;;12.86;82.01
47763;BME280;33526;42.690;23.322;2023-05-09T00:45:54;95343.50;;;13.04;81.79
47763;BME280;33526;42.690;23.322;2023-05-09T00:48:20;95335.09;;;13.04;81.39
47763;BME280;33526;42.690;23.322;2023-05-09T00:50:45;95317.53;;;12.94;81.39
47763;BME280;33526;42.690;23.322;2023-05-09T00:53:13;95340.03;;;13.09;81.43
47763;BME280;33526;42.690;23.322;2023-05-09T00:55:39;95340.63;;;13.13;81.07
47763;BME280;33526;42.690;23.322;2023-05-09T00:58:04;95350.59;;;13.14;81.64
47763;BME280;33526;42.690;23.322;2023-05-09T01:00:30;95341.88;;;13.12;81.34
47763;BME280;33526;42.690;23.322;2023-05-09T01:02:56;95350.28;;;13.12;81.14
47763;BME280;33526;42.690;23.322;2023-05-09T01:05:28;95337.91;;;13.04;80.74
47763;BME280;33526;42.690;23.322;2023-05-09T01:08:19;95334.41;;;13.09;80.79
47763;BME280;33526;42.690;23.322;2023-05-09T01:11:05;95342.06;;;13.08;80.87
47763;BME280;33526;42.690;23.322;2023-05-09T01:13:51;95343.81;;;13.06;80.94
47763;BME280;33526;42.690;23.322;2023-05-09T01:16:24;95338.59;;;13.13;80.74
47763;BME280;33526;42.690;23.322;2023-05-09T01:21:30;95338.69;;;13.19;80.32
47763;BME280;33526;42.690;23.322;2023-05-09T01:27:21;95348.50;;;13.24;79.65
47763;BME280;33526;42.690;23.322;2023-05-09T01:29:54;95318.06;;;13.07;79.70
47763;BME280;33526;42.690;23.322;2023-05-09T01:32:26;95311.38;;;13.05;79.61
47763;BME280;33526;42.690;23.322;2023-05-09T01:34:54;95338.53;;;13.23;79.23
47763;BME280;33526;42.690;23.322;2023-05-09T01:37:28;95331.00;;;13.05;79.43
47763;BME280;33526;42.690;23.322;2023-05-09T01:39:59;95353.69;;;13.16;79.53
47763;BME280;33526;42.690;23.322;2023-05-09T01:42:28;95351.78;;;13.22;79.41
47763;BME280;33526;42.690;23.322;2023-05-09T01:44:56;95335.19;;;13.09;79.26
47763;BME280;33526;42.690;23.322;2023-05-09T01:47:23;95343.38;;;13.22;79.27
47763;BME280;33526;42.690;23.322;2023-05-09T01:49:50;95318.91;;;12.98;79.42
47763;BME280;33526;42.690;23.322;2023-05-09T01:52:18;95355.66;;;13.25;79.24
47763;BME280;33526;42.690;23.322;2023-05-09T01:54:44;95351.50;;;13.20;79.42
47763;BME280;33526;42.690;23.322;2023-05-09T01:57:10;95355.94;;;13.27;79.37
47763;BME280;33526;42.690;23.322;2023-05-09T01:59:40;95333.16;;;13.10;79.37
47763;BME280;33526;42.690;23.322;2023-05-09T02:02:07;95360.22;;;13.22;79.52
47763;BME280;33526;42.690;23.322;2023-05-09T02:04:33;95358.94;;;13.23;79.77
47763;BME280;33526;42.690;23.322;2023-05-09T02:07:00;95323.25;;;12.99;79.93
47763;BME280;33526;42.690;23.322;2023-05-09T02:09:26;95325.22;;;13.08;79.61
47763;BME280;33526;42.690;23.322;2023-05-09T02:11:53;95350.59;;;13.14;79.71
47763;BME280;33526;42.690;23.322;2023-05-09T02:14:19;95332.41;;;13.09;79.58
47763;BME280;33526;42.690;23.322;2023-05-09T02:16:45;95352.34;;;13.11;79.68
47763;BME280;33526;42.690;23.322;2023-05-09T02:19:10;95351.38;;;13.14;79.83
47763;BME280;33526;42.690;23.322;2023-05-09T02:21:36;95300.75;;;12.85;79.59
47763;BME280;33526;42.690;23.322;2023-05-09T02:24:02;95339.72;;;13.07;79.03
47763;BME280;33526;42.690;23.322;2023-05-09T02:26:28;95323.59;;;12.92;79.55
47763;BME280;33526;42.690;23.322;2023-05-09T02:28:54;95355.63;;;13.10;79.71
47763;BME280;33526;42.690;23.322;2023-05-09T02:31:21;95341.94;;;13.03;79.80
47763;BME280;33526;42.690;23.322;2023-05-09T02:33:49;95316.16;;;12.89;79.59
47763;BME280;33526;42.690;23.322;2023-05-09T02:36:16;95355.44;;;13.13;79.73
47763;BME280;33526;42.690;23.322;2023-05-09T02:38:43;95346.91;;;13.08;79.40
47763;BME280;33526;42.690;23.322;2023-05-09T02:41:12;95359.31;;;13.16;79.69
47763;BME280;33526;42.690;23.322;2023-05-09T02:43:38;95318.34;;;12.85;79.28
47763;BME280;33526;42.690;23.322;2023-05-09T02:46:03;95301.16;;;12.44;80.61
47763;BME280;33526;42.690;23.322;2023-05-09T02:48:29;95348.09;;;12.68;81.14
47763;BME280;33526;42.690;23.322;2023-05-09T02:50:54;95343.44;;;12.65;81.84
47763;BME280;33526;42.690;23.322;2023-05-09T02:53:21;95353.72;;;12.58;82.21
47763;BME280;33526;42.690;23.322;2023-05-09T02:55:46;95327.81;;;12.39;82.76
47763;BME280;33526;42.690;23.322;2023-05-09T02:58:12;95341.78;;;12.49;83.17
47763;BME280;33526;42.690;23.322;2023-05-09T03:00:37;95335.47;;;12.30;83.79
47763;BME280;33526;42.690;23.322;2023-05-09T03:03:02;95326.78;;;12.28;83.89
47763;BME280;33526;42.690;23.322;2023-05-09T03:05:28;95350.44;;;12.36;84.10
47763;BME280;33526;42.690;23.322;2023-05-09T03:07:53;95345.16;;;12.29;84.25
47763;BME280;33526;42.690;23.322;2023-05-09T03:10:19;95366.91;;;12.43;84.41
47763;BME280;33526;42.690;23.322;2023-05-09T03:12:44;95337.34;;;12.33;84.36
47763;BME280;33526;42.690;23.322;2023-05-09T03:15:10;95363.13;;;12.55;83.89
47763;BME280;33526;42.690;23.322;2023-05-09T03:17:35;95351.03;;;12.40;84.09
47763;BME280;33526;42.690;23.322;2023-05-09T03:20:00;95372.34;;;12.47;84.96
47763;BME280;33526;42.690;23.322;2023-05-09T03:22:26;95385.00;;;12.33;86.79
47763;BME280;33526;42.690;23.322;2023-05-09T03:24:51;95355.81;;;12.06;87.48
47763;BME280;33526;42.690;23.322;2023-05-09T03:27:17;95393.13;;;12.31;87.72
47763;BME280;33526;42.690;23.322;2023-05-09T03:29:42;95381.41;;;12.41;87.45
47763;BME280;33526;42.690;23.322;2023-05-09T03:32:08;95377.13;;;12.55;86.39
47763;BME280;33526;42.690;23.322;2023-05-09T03:34:33;95399.34;;;12.68;86.12
47763;BME280;33526;42.690;23.322;2023-05-09T03:36:59;95400.38;;;12.80;85.70
47763;BME280;33526;42.690;23.322;2023-05-09T03:39:24;95356.00;;;12.45;84.46
47763;BME280;33526;42.690;23.322;2023-05-09T03:41:50;95401.06;;;12.66;84.81
47763;BME280;33526;42.690;23.322;2023-05-09T03:44:15;95400.56;;;12.76;84.47
47763;BME280;33526;42.690;23.322;2023-05-09T03:46:40;95373.63;;;12.70;83.86
47763;BME280;33526;42.690;23.322;2023-05-09T03:49:06;95404.69;;;12.90;83.19
47763;BME280;33526;42.690;23.322;2023-05-09T03:51:31;95407.50;;;12.90;83.06
47763;BME280;33526;42.690;23.322;2023-05-09T03:53:58;95382.78;;;12.79;83.22
47763;BME280;33526;42.690;23.322;2023-05-09T03:56:24;95376.97;;;12.83;83.00
47763;BME280;33526;42.690;23.322;2023-05-09T03:58:50;95407.44;;;12.99;82.55
47763;BME280;33526;42.690;23.322;2023-05-09T04:01:16;95412.00;;;12.97;83.22
47763;BME280;33526;42.690;23.322;2023-05-09T04:03:41;95407.63;;;12.96;83.23
47763;BME280;33526;42.690;23.322;2023-05-09T04:06:07;95404.34;;;12.97;83.29
47763;BME280;33526;42.690;23.322;2023-05-09T04:08:33;95395.28;;;13.03;83.09
47763;BME280;33526;42.690;23.322;2023-05-09T04:10:58;95405.78;;;13.17;82.48
47763;BME280;33526;42.690;23.322;2023-05-09T04:13:24;95403.63;;;13.12;82.37
47763;BME280;33526;42.690;23.322;2023-05-09T04:15:49;95383.09;;;13.06;81.83
47763;BME280;33526;42.690;23.322;2023-05-09T04:18:15;95407.53;;;13.14;81.39
47763;BME280;33526;42.690;23.322;2023-05-09T04:20:41;95416.59;;;13.09;82.06
47763;BME280;33526;42.690;23.322;2023-05-09T04:23:06;95406.19;;;13.25;81.49
47763;BME280;33526;42.690;23.322;2023-05-09T04:25:31;95405.69;;;13.35;80.42
47763;BME280;33526;42.690;23.322;2023-05-09T04:27:58;95412.13;;;13.51;79.94
47763;BME280;33526;42.690;23.322;2023-05-09T04:30:24;95388.56;;;13.24;80.00
47763;BME280;33526;42.690;23.322;2023-05-09T04:32:51;95418.88;;;13.44;79.84
47763;BME280;33526;42.690;23.322;2023-05-09T04:35:16;95389.34;;;13.25;80.18
47763;BME280;33526;42.690;23.322;2023-05-09T04:37:42;95386.03;;;13.35;79.63
47763;BME280;33526;42.690;23.322;2023-05-09T04:40:08;95426.09;;;13.60;79.63
47763;BME280;33526;42.690;23.322;2023-05-09T04:42:33;95395.66;;;13.44;79.78
47763;BME280;33526;42.690;23.322;2023-05-09T04:44:59;95423.78;;;13.73;79.27
47763;BME280;33526;42.690;23.322;2023-05-09T04:47:24;95406.66;;;13.71;78.66
47763;BME280;33526;42.690;23.322;2023-05-09T04:49:50;95419.19;;;13.85;78.31
47763;BME280;33526;42.690;23.322;2023-05-09T04:52:16;95401.13;;;13.77;77.91
47763;BME280;33526;42.690;23.322;2023-05-09T04:54:41;95410.78;;;13.61;78.37
47763;BME280;33526;42.690;23.322;2023-05-09T04:57:06;95419.84;;;13.41;79.10
47763;BME280;33526;42.690;23.322;2023-05-09T04:59:33;95420.00;;;13.37;79.57
47763;BME280;33526;42.690;23.322;2023-05-09T05:01:58;95403.28;;;13.19;79.82
47763;BME280;33526;42.690;23.322;2023-05-09T05:04:24;95403.97;;;13.38;79.40
47763;BME280;33526;42.690;23.322;2023-05-09T05:06:49;95424.69;;;13.41;79.99
47763;BME280;33526;42.690;23.322;2023-05-09T05:09:15;95400.66;;;13.39;79.77
47763;BME280;33526;42.690;23.322;2023-05-09T05:11:40;95410.50;;;13.59;79.24
47763;BME280;33526;42.690;23.322;2023-05-09T05:14:06;95373.19;;;13.58;77.75
47763;BME280;33526;42.690;23.322;2023-05-09T05:16:31;95368.44;;;13.26;77.82
47763;BME280;33526;42.690;23.322;2023-05-09T05:18:56;95412.56;;;13.73;77.61
47763;BME280;33526;42.690;23.322;2023-05-09T05:21:22;95399.41;;;13.80;75.83
47763;BME280;33526;42.690;23.322;2023-05-09T05:23:47;95412.03;;;13.99;75.18
47763;BME280;33526;42.690;23.322;2023-05-09T05:26:13;95413.59;;;14.30;74.24
47763;BME280;33526;42.690;23.322;2023-05-09T05:28:38;95424.22;;;14.56;72.98
47763;BME280;33526;42.690;23.322;2023-05-09T05:31:04;95429.28;;;14.51;72.05
47763;BME280;33526;42.690;23.322;2023-05-09T05:33:29;95400.06;;;14.64;71.38
47763;BME280;33526;42.690;23.322;2023-05-09T05:35:55;95424.38;;;14.97;70.17
47763;BME280;33526;42.690;23.322;2023-05-09T05:38:20;95415.06;;;14.90;69.11
47763;BME280;33526;42.690;23.322;2023-05-09T05:40:45;95398.16;;;14.90;68.93
47763;BME280;33526;42.690;23.322;2023-05-09T05:43:11;95430.16;;;15.08;68.55
47763;BME280;33526;42.690;23.322;2023-05-09T05:45:36;95416.16;;;15.14;68.30
47763;BME280;33526;42.690;23.322;2023-05-09T05:48:02;95424.47;;;15.23;67.92
47763;BME280;33526;42.690;23.322;2023-05-09T05:50:27;95431.03;;;15.35;67.74
47763;BME280;33526;42.690;23.322;2023-05-09T05:52:53;95434.44;;;15.59;67.33
47763;BME280;33526;42.690;23.322;2023-05-09T05:55:18;95382.16;;;15.58;65.95
47763;BME280;33526;42.690;23.322;2023-05-09T05:57:44;95414.50;;;15.83;64.61
47763;BME280;33526;42.690;23.322;2023-05-09T06:00:10;95438.28;;;16.03;65.04
47763;BME280;33526;42.690;23.322;2023-05-09T06:02:36;95432.97;;;16.11;63.85
47763;BME280;33526;42.690;23.322;2023-05-09T06:05:03;95399.81;;;16.26;63.12
47763;BME280;33526;42.690;23.322;2023-05-09T06:07:28;95435.97;;;16.01;62.92
47763;BME280;33526;42.690;23.322;2023-05-09T06:09:53;95427.88;;;15.89;63.25
47763;BME280;33526;42.690;23.322;2023-05-09T06:12:19;95398.41;;;15.90;63.59
47763;BME280;33526;42.690;23.322;2023-05-09T06:14:45;95425.94;;;15.74;63.76
47763;BME280;33526;42.690;23.322;2023-05-09T06:17:10;95439.38;;;15.85;63.51
47763;BME280;33526;42.690;23.322;2023-05-09T06:19:36;95430.16;;;15.08;64.80
47763;BME280;33526;42.690;23.322;2023-05-09T06:22:01;95352.44;;;14.45;66.07
47763;BME280;33526;42.690;23.322;2023-05-09T06:24:27;95418.13;;;15.07;65.79
47763;BME280;33526;42.690;23.322;2023-05-09T06:26:53;95429.63;;;15.24;65.34
47763;BME280;33526;42.690;23.322;2023-05-09T06:29:18;95439.50;;;15.35;65.24
47763;BME280;33526;42.690;23.322;2023-05-09T06:31:44;95416.22;;;14.99;65.17
47763;BME280;33526;42.690;23.322;2023-05-09T06:34:10;95414.91;;;14.79;65.90
47763;BME280;33526;42.690;23.322;2023-05-09T06:36:35;95403.66;;;14.49;66.71
47763;BME280;33526;42.690;23.322;2023-05-09T06:39:00;95411.44;;;14.40;67.01
47763;BME280;33526;42.690;23.322;2023-05-09T06:41:26;95360.34;;;14.26;67.24
47763;BME280;33526;42.690;23.322;2023-05-09T06:43:52;95365.50;;;14.28;66.57
47763;BME280;33526;42.690;23.322;2023-05-09T06:46:17;95434.03;;;14.75;66.01
47763;BME280;33526;42.690;23.322;2023-05-09T06:48:43;95384.47;;;14.63;65.72
47763;BME280;33526;42.690;23.322;2023-05-09T06:51:08;95433.44;;;15.42;64.54
47763;BME280;33526;42.690;23.322;2023-05-09T06:53:35;95409.22;;;15.29;63.44
47763;BME280;33526;42.690;23.322;2023-05-09T06:56:01;95423.16;;;15.80;62.94
47763;BME280;33526;42.690;23.322;2023-05-09T06:58:27;95430.13;;;15.64;62.59
47763;BME280;33526;42.690;23.322;2023-05-09T07:00:52;95436.28;;;15.83;62.69
47763;BME280;33526;42.690;23.322;2023-05-09T07:03:18;95426.53;;;15.84;63.17
47763;BME280;33526;42.690;23.322;2023-05-09T07:05:43;95413.72;;;15.83;62.63
47763;BME280;33526;42.690;23.322;2023-05-09T07:08:08;95426.97;;;15.77;62.90
47763;BME280;33526;42.690;23.322;2023-05-09T07:10:34;95386.75;;;15.35;63.34
47763;BME280;33526;42.690;23.322;2023-05-09T07:13:00;95425.44;;;15.76;62.88
47763;BME280;33526;42.690;23.322;2023-05-09T07:15:25;95412.59;;;15.75;62.68
47763;BME280;33526;42.690;23.322;2023-05-09T07:17:50;95416.56;;;15.83;62.50
47763;BME280;33526;42.690;23.322;2023-05-09T07:20:17;95407.63;;;15.70;62.68
47763;BME280;33526;42.690;23.322;2023-05-09T07:22:42;95402.88;;;15.76;62.18
47763;BME280;33526;42.690;23.322;2023-05-09T07:25:08;95419.97;;;15.52;62.90
47763;BME280;33526;42.690;23.322;2023-05-09T07:27:34;95431.75;;;15.50;63.59
47763;BME280;33526;42.690;23.322;2023-05-09T07:29:59;95427.94;;;15.53;63.56
47763;BME280;33526;42.690;23.322;2023-05-09T07:32:25;95426.81;;;15.86;62.87
47763;BME280;33526;42.690;23.322;2023-05-09T07:34:53;95405.38;;;15.94;62.05
47763;BME280;33526;42.690;23.322;2023-05-09T07:37:18;95401.69;;;16.09;61.61
47763;BME280;33526;42.690;23.322;2023-05-09T07:39:44;95391.94;;;16.10;61.08
47763;BME280;33526;42.690;23.322;2023-05-09T07:42:11;95426.31;;;16.66;60.10
47763;BME280;33526;42.690;23.322;2023-05-09T07:44:37;95401.50;;;16.44;58.52
47763;BME280;33526;42.690;23.322;2023-05-09T07:47:02;95407.28;;;16.61;57.99
47763;BME280;33526;42.690;23.322;2023-05-09T07:49:29;95436.50;;;16.84;57.97
47763;BME280;33526;42.690;23.322;2023-05-09T07:51:55;95431.78;;;16.75;58.43
47763;BME280;33526;42.690;23.322;2023-05-09T07:54:20;95391.59;;;16.60;58.22
47763;BME280;33526;42.690;23.322;2023-05-09T07:56:46;95428.38;;;16.39;59.16
47763;BME280;33526;42.690;23.322;2023-05-09T07:59:11;95429.63;;;16.07;60.71
47763;BME280;33526;42.690;23.322;2023-05-09T08:01:36;95431.13;;;16.28;60.72
47763;BME280;33526;42.690;23.322;2023-05-09T08:04:02;95396.81;;;16.35;60.31
47763;BME280;33526;42.690;23.322;2023-05-09T08:06:30;95419.25;;;16.50;58.99
47763;BME280;33526;42.690;23.322;2023-05-09T08:08:56;95425.34;;;16.17;60.19
47763;BME280;33526;42.690;23.322;2023-05-09T08:11:21;95418.16;;;16.16;59.75
47763;BME280;33526;42.690;23.322;2023-05-09T08:13:47;95423.63;;;16.25;60.35
47763;BME280;33526;42.690;23.322;2023-05-09T08:16:13;95417.09;;;16.39;60.13
47763;BME280;33526;42.690;23.322;2023-05-09T08:18:38;95341.06;;;15.98;59.60
47763;BME280;33526;42.690;23.322;2023-05-09T08:21:03;95385.31;;;16.13;59.59
47763;BME280;33526;42.690;23.322;2023-05-09T08:23:29;95417.91;;;16.46;59.37
47763;BME280;33526;42.690;23.322;2023-05-09T08:25:55;95401.63;;;16.61;58.53
47763;BME280;33526;42.690;23.322;2023-05-09T08:28:21;95418.41;;;16.76;58.74
47763;BME280;33526;42.690;23.322;2023-05-09T08:30:51;95419.69;;;16.17;59.80
47763;BME280;33526;42.690;23.322;2023-05-09T08:33:17;95422.44;;;16.32;59.72
47763;BME280;33526;42.690;23.322;2023-05-09T08:35:42;95414.91;;;16.23;59.96
47763;BME280;33526;42.690;23.322;2023-05-09T08:38:08;95414.03;;;16.69;59.42
47763;BME280;33526;42.690;23.322;2023-05-09T08:40:36;95418.69;;;16.78;58.09
47763;BME280;33526;42.690;23.322;2023-05-09T08:43:05;95429.78;;;16.50;59.34
47763;BME280;33526;42.690;23.322;2023-05-09T08:45:33;95423.09;;;16.53;59.33
47763;BME280;33526;42.690;23.322;2023-05-09T08:48:02;95426.88;;;16.76;59.05
47763;BME280;33526;42.690;23.322;2023-05-09T08:50:28;95428.44;;;16.45;58.17
47763;BME280;33526;42.690;23.322;2023-05-09T08:52:53;95422.81;;;15.72;60.60
47763;BME280;33526;42.690;23.322;2023-05-09T08:55:19;95405.41;;;15.33;60.14
47763;BME280;33526;42.690;23.322;2023-05-09T08:57:45;95394.38;;;14.94;61.47
47763;BME280;33526;42.690;23.322;2023-05-09T09:00:11;95405.34;;;15.47;61.01
47763;BME280;33526;42.690;23.322;2023-05-09T09:02:40;95407.38;;;15.47;61.08
47763;BME280;33526;42.690;23.322;2023-05-09T09:05:06;95371.47;;;14.50;62.92
47763;BME280;33526;42.690;23.322;2023-05-09T09:07:33;95376.31;;;14.65;62.92
47763;BME280;33526;42.690;23.322;2023-05-09T09:10:02;95383.09;;;14.43;63.42
47763;BME280;33526;42.690;23.322;2023-05-09T09:12:28;95419.78;;;14.64;63.77
47763;BME280;33526;42.690;23.322;2023-05-09T09:14:56;95398.75;;;14.44;63.72
47763;BME280;33526;42.690;23.322;2023-05-09T09:17:27;95409.09;;;14.68;63.09
47763;BME280;33526;42.690;23.322;2023-05-09T09:20:00;95396.69;;;14.45;63.40
47763;BME280;33526;42.690;23.322;2023-05-09T09:22:31;95412.19;;;14.40;63.90
47763;BME280;33526;42.690;23.322;2023-05-09T09:25:01;95400.19;;;14.25;63.99
47763;BME280;33526;42.690;23.322;2023-05-09T09:27:28;95404.88;;;14.28;64.22
47763;BME280;33526;42.690;23.322;2023-05-09T09:29:53;95412.03;;;14.14;64.01
47763;BME280;33526;42.690;23.322;2023-05-09T09:32:19;95384.31;;;13.92;64.45
47763;BME280;33526;42.690;23.322;2023-05-09T09:34:48;95407.16;;;14.14;64.06
47763;BME280;33526;42.690;23.322;2023-05-09T09:37:23;95395.25;;;14.05;63.97
47763;BME280;33526;42.690;23.322;2023-05-09T09:39:55;95409.09;;;14.53;64.81
47763;BME280;33526;42.690;23.322;2023-05-09T09:42:21;95411.50;;;15.10;64.33
47763;BME280;33526;42.690;23.322;2023-05-09T09:45:12;95412.16;;;15.41;62.74
47763;BME280;33526;42.690;23.322;2023-05-09T09:47:39;95406.53;;;15.61;62.07
47763;BME280;33526;42.690;23.322;2023-05-09T09:50:17;95415.25;;;15.84;61.20
47763;BME280;33526;42.690;23.322;2023-05-09T09:52:54;95427.34;;;16.11;60.51
47763;BME280;33526;42.690;23.322;2023-05-09T09:55:23;95414.25;;;16.34;59.90
47763;BME280;33526;42.690;23.322;2023-05-09T09:57:49;95420.13;;;16.62;59.00
47763;BME280;33526;42.690;23.322;2023-05-09T10:00:23;95419.84;;;16.92;58.42
47763;BME280;33526;42.690;23.322;2023-05-09T10:02:52;95417.22;;;17.20;57.50
47763;BME280;33526;42.690;23.322;2023-05-09T10:08:06;95416.53;;;17.36;56.39
47763;BME280;33526;42.690;23.322;2023-05-09T10:10:34;95400.25;;;16.82;56.81
47763;BME280;33526;42.690;23.322;2023-05-09T10:13:08;95412.78;;;16.76;57.89
47763;BME280;33526;42.690;23.322;2023-05-09T10:15:35;95392.69;;;16.94;57.71
47763;BME280;33526;42.690;23.322;2023-05-09T10:18:02;95396.09;;;17.10;57.02
47763;BME280;33526;42.690;23.322;2023-05-09T10:20:29;95389.06;;;16.94;57.51
47763;BME280;33526;42.690;23.322;2023-05-09T10:22:58;95384.28;;;16.42;57.80
47763;BME280;33526;42.690;23.322;2023-05-09T10:25:45;95407.38;;;16.40;58.43
47763;BME280;33526;42.690;23.322;2023-05-09T10:28:14;95401.56;;;16.50;58.56
47763;BME280;33526;42.690;23.322;2023-05-09T10:33:34;95400.34;;;16.94;58.33
47763;BME280;33526;42.690;23.322;2023-05-09T10:36:02;95370.59;;;16.93;57.52
47763;BME280;33526;42.690;23.322;2023-05-09T10:38:29;95375.38;;;17.30;57.72
47763;BME280;33526;42.690;23.322;2023-05-09T10:40:55;95345.47;;;17.66;55.56
47763;BME280;33526;42.690;23.322;2023-05-09T10:43:22;95391.97;;;17.54;56.16
47763;BME280;33526;42.690;23.322;2023-05-09T10:45:49;95404.47;;;16.93;58.54
47763;BME280;33526;42.690;23.322;2023-05-09T10:48:16;95388.88;;;16.71;58.87
47763;BME280;33526;42.690;23.322;2023-05-09T10:50:42;95378.31;;;16.66;59.11
47763;BME280;33526;42.690;23.322;2023-05-09T10:53:09;95391.63;;;16.92;58.96
47763;BME280;33526;42.690;23.322;2023-05-09T10:58:28;95390.84;;;17.40;57.78
47763;BME280;33526;42.690;23.322;2023-05-09T11:00:57;95402.94;;;17.41;57.07
47763;BME280;33526;42.690;23.322;2023-05-09T11:03:24;95389.03;;;17.31;56.70
47763;BME280;33526;42.690;23.322;2023-05-09T11:05:53;95389.03;;;17.37;56.62
47763;BME280;33526;42.690;23.322;2023-05-09T11:08:27;95402.91;;;17.35;56.95
47763;BME280;33526;42.690;23.322;2023-05-09T11:10:54;95393.72;;;17.51;56.86
47763;BME280;33526;42.690;23.322;2023-05-09T11:13:24;95402.31;;;17.80;56.60
47763;BME280;33526;42.690;23.322;2023-05-09T11:15:50;95400.09;;;17.35;57.28
47763;BME280;33526;42.690;23.322;2023-05-09T11:18:27;95398.69;;;17.68;57.09
47763;BME280;33526;42.690;23.322;2023-05-09T11:20:54;95399.53;;;17.85;55.96
47763;BME280;33526;42.690;23.322;2023-05-09T11:23:26;95394.41;;;17.95;55.77
47763;BME280;33526;42.690;23.322;2023-05-09T11:25:52;95405.47;;;17.87;55.07
47763;BME280;33526;42.690;23.322;2023-05-09T11:28:32;95405.72;;;17.89;55.54
47763;BME280;33526;42.690;23.322;2023-05-09T11:31:15;95397.00;;;17.99;55.17
47763;BME280;33526;42.690;23.322;2023-05-09T11:33:42;95403.72;;;18.18;54.42
47763;BME280;33526;42.690;23.322;2023-05-09T11:36:19;95405.53;;;18.10;54.75
47763;BME280;33526;42.690;23.322;2023-05-09T11:38:47;95401.41;;;18.11;54.20
47763;BME280;33526;42.690;23.322;2023-05-09T11:41:13;95398.28;;;17.98;54.60
47763;BME280;33526;42.690;23.322;2023-05-09T11:43:41;95382.25;;;17.72;55.31
47763;BME280;33526;42.690;23.322;2023-05-09T11:46:06;95382.75;;;17.65;55.73
47763;BME280;33526;42.690;23.322;2023-05-09T11:48:39;95399.31;;;17.94;55.58
47763;BME280;33526;42.690;23.322;2023-05-09T11:51:06;95393.38;;;17.92;54.67
47763;BME280;33526;42.690;23.322;2023-05-09T11:53:31;95381.31;;;17.86;54.92
47763;BME280;33526;42.690;23.322;2023-05-09T11:55:57;95386.06;;;17.57;56.08
47763;BME280;33526;42.690;23.322;2023-05-09T11:58:26;95377.44;;;17.24;56.96
47763;BME280;33526;42.690;23.322;2023-05-09T12:00:52;95377.22;;;17.33;56.33
47763;BME280;33526;42.690;23.322;2023-05-09T12:03:17;95383.00;;;17.12;57.25
47763;BME280;33526;42.690;23.322;2023-05-09T12:05:43;95385.69;;;17.33;56.33
47763;BME280;33526;42.690;23.322;2023-05-09T12:08:08;95387.81;;;17.00;56.87
47763;BME280;33526;42.690;23.322;2023-05-09T12:10:36;95387.34;;;17.08;57.08
47763;BME280;33526;42.690;23.322;2023-05-09T12:13:02;95402.97;;;17.03;57.37
47763;BME280;33526;42.690;23.322;2023-05-09T12:15:28;95391.63;;;16.28;58.96
47763;BME280;33526;42.690;23.322;2023-05-09T12:18:04;95363.13;;;15.53;61.10
47763;BME280;33526;42.690;23.322;2023-05-09T12:20:44;95397.47;;;15.98;60.91
47763;BME280;33526;42.690;23.322;2023-05-09T12:23:10;95392.69;;;16.36;59.75
47763;BME280;33526;42.690;23.322;2023-05-09T12:25:37;95394.88;;;16.53;59.21
47763;BME280;33526;42.690;23.322;2023-05-09T12:28:02;95378.53;;;16.57;58.46
47763;BME280;33526;42.690;23.322;2023-05-09T12:30:28;95403.09;;;16.51;58.72
47763;BME280;33526;42.690;23.322;2023-05-09T12:32:54;95399.72;;;16.47;58.80
47763;BME280;33526;42.690;23.322;2023-05-09T12:35:20;95393.75;;;16.71;58.47
47763;BME280;33526;42.690;23.322;2023-05-09T12:37:53;95397.84;;;16.70;58.40
47763;BME280;33526;42.690;23.322;2023-05-09T12:40:19;95375.13;;;16.53;58.35
47763;BME280;33526;42.690;23.322;2023-05-09T12:42:45;95374.69;;;16.28;59.55
47763;BME280;33526;42.690;23.322;2023-05-09T12:45:11;95399.19;;;16.16;59.92
47763;BME280;33526;42.690;23.322;2023-05-09T12:47:36;95371.75;;;15.44;61.46
47763;BME280;33526;42.690;23.322;2023-05-09T12:50:10;95382.94;;;15.38;62.18
47763;BME280;33526;42.690;23.322;2023-05-09T12:52:40;95383.84;;;15.50;62.55
47763;BME280;33526;42.690;23.322;2023-05-09T12:55:09;95370.75;;;15.47;62.50
47763;BME280;33526;42.690;23.322;2023-05-09T12:57:35;95380.47;;;15.46;62.55
47763;BME280;33526;42.690;23.322;2023-05-09T13:00:04;95382.88;;;15.33;63.19
47763;BME280;33526;42.690;23.322;2023-05-09T13:02:35;95380.03;;;15.53;62.81
47763;BME280;33526;42.690;23.322;2023-05-09T13:05:10;95374.13;;;15.51;62.59